Time;durP1;ratioP1;P1;durP2;ratioP2;P2;SDS_P1;SDS_P2;PMS_P1;PMS_P2;Temp;Humidity;BMP_temperature;BMP_pressure;BME280_temperature;BME280_humidity;BME280_pressure;Samples;Min_cycle;Max_cycle;Signal;HPM_P1;HPM_P2
2023/07/15 00:02:20;;;;;;;4.68;2.33;;;;;;;;;;4984452;28;25132;-66
2023/07/15 00:04:46;;;;;;;6.22;1.98;;;;;;;;;;4985489;28;25115;-67
2023/07/15 00:07:12;;;;;;;2.78;2.00;;;;;;;;;;4986961;28;25123;-68
2023/07/15 00:09:39;;;;;;;4.22;2.13;;;;;;;;;;4982267;28;25062;-68
2023/07/15 00:12:08;;;;;;;4.88;2.10;;;;;;;;;;4986764;28;25075;-66
2023/07/15 00:14:34;;;;;;;8.73;2.00;;;;;;;;;;4987270;28;25081;-66
2023/07/15 00:17:00;;;;;;;3.05;1.85;;;;;;;;;;4981080;28;25147;-66
2023/07/15 00:19:26;;;;;;;5.30;1.83;;;;;;;;;;4987745;28;25074;-67
2023/07/15 00:21:52;;;;;;;3.03;2.42;;;;;;;;;;4987766;28;25091;-68
2023/07/15 00:24:19;;;;;;;7.53;2.42;;;;;;;;;;4987502;28;25057;-67
2023/07/15 00:26:47;;;;;;;5.80;2.30;;;;;;;;;;4989579;28;25061;-66
2023/07/15 00:29:13;;;;;;;6.78;1.77;;;;;;;;;;4990396;28;25138;-65
2023/07/15 00:31:39;;;;;;;5.05;1.83;;;;;;;;;;4985582;28;25135;-66
2023/07/15 00:34:05;;;;;;;6.40;2.10;;;;;;;;;;4988867;28;25071;-66
2023/07/15 00:36:32;;;;;;;5.40;2.08;;;;;;;;;;4996305;28;25095;-67
2023/07/15 00:38:58;;;;;;;5.10;1.88;;;;;;;;;;4991507;28;25061;-67
2023/07/15 00:41:27;;;;;;;5.38;1.95;;;;;;;;;;4998378;28;25147;-65
2023/07/15 00:43:59;;;;;;;4.75;1.85;;;;;;;;;;4995505;28;25065;-67
2023/07/15 00:46:31;;;;;;;6.85;1.70;;;;;;;;;;4986520;28;25086;-65
2023/07/15 00:48:57;;;;;;;8.13;2.25;;;;;;;;;;4988689;28;25134;-66
2023/07/15 00:51:24;;;;;;;5.18;1.67;;;;;;;;;;4985792;28;25064;-66
2023/07/15 00:53:50;;;;;;;3.40;1.67;;;;;;;;;;4987737;28;25141;-66
2023/07/15 00:56:16;;;;;;;4.80;2.20;;;;;;;;;;4985370;28;25055;-66
2023/07/15 00:58:42;;;;;;;6.45;1.70;;;;;;;;;;4986553;28;25067;-66
2023/07/15 01:01:10;;;;;;;6.43;2.38;;;;;;;;;;4987102;28;25108;-66
2023/07/15 01:03:37;;;;;;;7.18;2.83;;;;;;;;;;4987275;28;25096;-67
2023/07/15 01:06:04;;;;;;;6.45;2.85;;;;;;;;;;4983701;28;25069;-67
2023/07/15 01:08:30;;;;;;;5.78;2.78;;;;;;;;;;4987735;28;25067;-66
2023/07/15 01:10:56;;;;;;;8.38;2.05;;;;;;;;;;4986718;28;25058;-67
2023/07/15 01:13:22;;;;;;;7.53;2.10;;;;;;;;;;4986521;28;25118;-67
2023/07/15 01:15:48;;;;;;;7.70;2.00;;;;;;;;;;4986176;28;25153;-68
2023/07/15 01:18:14;;;;;;;5.22;1.88;;;;;;;;;;4986345;28;25134;-67
2023/07/15 01:20:40;;;;;;;4.88;1.70;;;;;;;;;;4985846;28;25116;-67
2023/07/15 01:23:06;;;;;;;5.07;2.08;;;;;;;;;;4987103;28;25078;-67
2023/07/15 01:25:32;;;;;;;5.25;2.42;;;;;;;;;;4986063;28;25089;-67
2023/07/15 01:27:58;;;;;;;4.72;1.80;;;;;;;;;;4985285;28;25077;-66
2023/07/15 01:30:23;;;;;;;5.57;2.35;;;;;;;;;;4985584;28;25070;-66
2023/07/15 01:32:49;;;;;;;5.13;2.15;;;;;;;;;;4987961;28;25068;-68
2023/07/15 01:35:15;;;;;;;4.88;2.38;;;;;;;;;;4989237;28;25085;-67
2023/07/15 01:37:41;;;;;;;5.68;2.45;;;;;;;;;;4988209;28;25086;-67
2023/07/15 01:40:09;;;;;;;7.45;2.15;;;;;;;;;;4986981;28;25143;-69
2023/07/15 01:42:35;;;;;;;8.60;2.17;;;;;;;;;;4986887;28;25058;-67
2023/07/15 01:45:03;;;;;;;8.93;2.70;;;;;;;;;;4988011;28;25050;-68
2023/07/15 01:47:29;;;;;;;14.27;2.22;;;;;;;;;;4988451;28;25152;-67
2023/07/15 01:49:55;;;;;;;5.88;1.90;;;;;;;;;;4988613;28;25149;-69
2023/07/15 01:52:21;;;;;;;6.40;2.55;;;;;;;;;;4988423;28;25093;-68
2023/07/15 01:54:47;;;;;;;5.97;2.30;;;;;;;;;;4988664;28;25055;-67
2023/07/15 01:57:13;;;;;;;6.00;2.47;;;;;;;;;;4989170;28;25068;-66
2023/07/15 01:59:39;;;;;;;5.95;2.22;;;;;;;;;;4987954;28;25074;-67
2023/07/15 02:02:05;;;;;;;4.60;2.28;;;;;;;;;;4988241;28;25083;-67
2023/07/15 02:04:31;;;;;;;7.53;2.30;;;;;;;;;;4987141;28;25067;-66
2023/07/15 02:06:57;;;;;;;8.20;2.75;;;;;;;;;;4985010;28;25061;-66
2023/07/15 02:09:23;;;;;;;8.02;2.50;;;;;;;;;;4988356;28;25057;-66
2023/07/15 02:11:49;;;;;;;6.20;2.10;;;;;;;;;;4987620;28;25051;-66
2023/07/15 02:14:15;;;;;;;5.82;2.22;;;;;;;;;;4988452;28;25075;-68
2023/07/15 02:16:41;;;;;;;6.18;2.42;;;;;;;;;;4987250;28;25107;-68
2023/07/15 02:19:07;;;;;;;4.78;2.47;;;;;;;;;;4988062;28;25065;-66
2023/07/15 02:21:33;;;;;;;5.20;2.50;;;;;;;;;;4987518;28;25097;-69
2023/07/15 02:23:59;;;;;;;6.90;2.30;;;;;;;;;;4985397;28;25141;-67
2023/07/15 02:26:27;;;;;;;5.65;2.28;;;;;;;;;;4985286;28;25061;-70
2023/07/15 02:28:54;;;;;;;7.38;2.83;;;;;;;;;;4987320;28;25058;-67
2023/07/15 02:31:21;;;;;;;4.55;2.42;;;;;;;;;;4983703;28;25090;-67
2023/07/15 02:33:47;;;;;;;4.57;2.80;;;;;;;;;;4985879;28;25131;-66
2023/07/15 02:36:13;;;;;;;9.20;3.03;;;;;;;;;;4985531;28;25074;-67
2023/07/15 02:38:40;;;;;;;9.20;2.30;;;;;;;;;;4986162;28;25149;-67
2023/07/15 02:41:06;;;;;;;5.47;2.40;;;;;;;;;;4990904;28;25059;-67
2023/07/15 02:43:32;;;;;;;3.58;2.10;;;;;;;;;;4991990;28;25120;-68
2023/07/15 02:45:58;;;;;;;6.95;2.15;;;;;;;;;;4988195;28;25068;-67
2023/07/15 02:48:24;;;;;;;5.28;2.35;;;;;;;;;;4988222;28;25071;-67
2023/07/15 02:50:53;;;;;;;4.03;1.90;;;;;;;;;;4984746;28;25093;-68
2023/07/15 02:53:19;;;;;;;5.22;2.00;;;;;;;;;;4987837;28;25083;-68
2023/07/15 02:55:45;;;;;;;8.73;2.00;;;;;;;;;;4984369;28;25107;-68
2023/07/15 02:58:16;;;;;;;9.43;2.38;;;;;;;;;;4985946;28;25069;-66
2023/07/15 03:00:42;;;;;;;5.93;2.08;;;;;;;;;;4984249;28;25138;-66
2023/07/15 03:03:09;;;;;;;3.35;1.73;;;;;;;;;;4990960;28;25062;-67
2023/07/15 03:05:35;;;;;;;2.97;1.65;;;;;;;;;;4986747;28;25068;-67
2023/07/15 03:08:02;;;;;;;4.80;1.50;;;;;;;;;;4967153;28;25074;-67
2023/07/15 03:10:28;;;;;;;3.13;1.65;;;;;;;;;;4985093;28;25096;-66
2023/07/15 03:12:53;;;;;;;5.28;2.35;;;;;;;;;;4984879;28;25107;-67
2023/07/15 03:15:19;;;;;;;4.13;2.00;;;;;;;;;;4986212;28;25078;-67
2023/07/15 03:17:46;;;;;;;1.73;1.40;;;;;;;;;;4989821;28;25155;-66
2023/07/15 03:20:22;;;;;;;5.35;1.83;;;;;;;;;;4990899;28;25091;-65
2023/07/15 03:22:48;;;;;;;4.03;1.70;;;;;;;;;;4985223;28;25063;-67
2023/07/15 03:25:14;;;;;;;3.10;1.95;;;;;;;;;;4973219;28;25043;-67
2023/07/15 03:27:40;;;;;;;4.55;1.77;;;;;;;;;;4967128;28;25060;-68
2023/07/15 03:30:07;;;;;;;6.28;1.65;;;;;;;;;;4977138;28;25074;-65
2023/07/15 03:32:37;;;;;;;5.57;1.90;;;;;;;;;;4967704;28;25127;-67
2023/07/15 03:35:04;;;;;;;1.77;1.42;;;;;;;;;;4969353;28;25118;-69
2023/07/15 03:37:33;;;;;;;5.45;1.80;;;;;;;;;;4982660;28;25088;-66
2023/07/15 03:40:00;;;;;;;4.78;1.80;;;;;;;;;;4976011;28;25076;-67
2023/07/15 03:42:26;;;;;;;6.80;2.15;;;;;;;;;;4968153;28;25079;-67
2023/07/15 03:44:53;;;;;;;8.18;2.20;;;;;;;;;;4967193;28;25067;-67
2023/07/15 03:47:19;;;;;;;2.97;1.70;;;;;;;;;;4968224;28;25073;-66
2023/07/15 03:49:45;;;;;;;4.30;1.90;;;;;;;;;;4984487;28;25138;-67
2023/07/15 03:52:11;;;;;;;4.93;1.70;;;;;;;;;;4969616;28;25066;-69
2023/07/15 03:54:37;;;;;;;3.88;2.22;;;;;;;;;;4973559;28;25068;-67
2023/07/15 03:57:03;;;;;;;2.72;1.58;;;;;;;;;;4985736;28;25073;-67
2023/07/15 03:59:29;;;;;;;7.72;2.58;;;;;;;;;;4986608;28;25084;-67
2023/07/15 04:01:55;;;;;;;5.55;2.08;;;;;;;;;;4986992;28;25060;-68
2023/07/15 04:04:21;;;;;;;2.58;1.77;;;;;;;;;;4987396;28;25067;-66
2023/07/15 04:06:48;;;;;;;4.13;1.80;;;;;;;;;;4979065;28;25080;-67
2023/07/15 04:09:14;;;;;;;1.73;1.35;;;;;;;;;;4967300;28;25101;-68
2023/07/15 04:11:40;;;;;;;5.90;1.98;;;;;;;;;;4964653;28;25064;-67
2023/07/15 04:14:06;;;;;;;6.55;1.90;;;;;;;;;;4975934;28;25071;-67
2023/07/15 04:16:32;;;;;;;4.10;1.73;;;;;;;;;;4966491;28;25068;-66
2023/07/15 04:18:58;;;;;;;3.38;1.83;;;;;;;;;;4966343;28;25063;-67
2023/07/15 04:21:24;;;;;;;3.83;1.90;;;;;;;;;;4970751;28;25084;-67
2023/07/15 04:23:52;;;;;;;4.55;2.47;;;;;;;;;;4965733;28;25154;-67
2023/07/15 04:26:22;;;;;;;7.05;2.50;;;;;;;;;;4964145;28;25139;-66
2023/07/15 04:28:48;;;;;;;3.92;2.40;;;;;;;;;;4965568;28;25053;-67
2023/07/15 04:31:14;;;;;;;4.25;2.05;;;;;;;;;;4966445;28;25125;-66
2023/07/15 04:33:40;;;;;;;3.22;2.03;;;;;;;;;;4968331;28;25083;-67
2023/07/15 04:36:06;;;;;;;3.38;2.00;;;;;;;;;;4966186;28;25100;-65
2023/07/15 04:38:32;;;;;;;3.33;1.90;;;;;;;;;;4966149;28;25108;-66
2023/07/15 04:40:58;;;;;;;4.63;2.20;;;;;;;;;;4965998;28;25080;-69
2023/07/15 04:43:24;;;;;;;2.53;1.60;;;;;;;;;;4965382;28;26178;-65
2023/07/15 04:45:50;;;;;;;4.45;1.77;;;;;;;;;;4965230;28;25141;-69
2023/07/15 04:48:16;;;;;;;3.78;1.88;;;;;;;;;;4965790;28;25053;-68
2023/07/15 04:50:42;;;;;;;2.85;1.90;;;;;;;;;;4969543;28;25072;-68
2023/07/15 04:53:08;;;;;;;4.88;1.95;;;;;;;;;;4965928;28;25148;-66
2023/07/15 04:55:34;;;;;;;7.50;1.77;;;;;;;;;;4966106;28;25048;-68
2023/07/15 04:58:00;;;;;;;4.82;2.25;;;;;;;;;;4965506;28;25091;-67
2023/07/15 05:00:27;;;;;;;3.17;2.15;;;;;;;;;;4965836;28;25081;-67
2023/07/15 05:02:53;;;;;;;5.50;1.60;;;;;;;;;;4964437;28;25126;-68
2023/07/15 05:05:19;;;;;;;5.03;1.73;;;;;;;;;;4960830;28;25068;-68
2023/07/15 05:07:45;;;;;;;3.75;1.80;;;;;;;;;;4963917;28;25118;-67
2023/07/15 05:10:11;;;;;;;3.75;1.88;;;;;;;;;;4962630;28;25060;-66
2023/07/15 05:12:37;;;;;;;4.05;1.83;;;;;;;;;;4967353;28;25158;-66
2023/07/15 05:15:04;;;;;;;2.03;1.63;;;;;;;;;;4969877;28;25113;-66
2023/07/15 05:17:30;;;;;;;4.15;1.58;;;;;;;;;;4980378;28;25056;-68
2023/07/15 05:19:56;;;;;;;2.40;1.50;;;;;;;;;;4989691;28;25074;-67
2023/07/15 05:22:22;;;;;;;3.40;1.73;;;;;;;;;;4986028;28;25068;-67
2023/07/15 05:24:49;;;;;;;2.83;1.40;;;;;;;;;;4980778;28;25062;-69
2023/07/15 05:27:15;;;;;;;3.17;1.52;;;;;;;;;;4983961;28;25145;-68
2023/07/15 05:29:41;;;;;;;3.00;1.35;;;;;;;;;;4984800;28;25101;-69
2023/07/15 05:32:07;;;;;;;3.75;1.50;;;;;;;;;;4984073;28;25081;-66
2023/07/15 05:34:33;;;;;;;3.63;1.27;;;;;;;;;;4982436;28;25149;-68
2023/07/15 05:36:59;;;;;;;3.58;1.48;;;;;;;;;;4976994;28;25069;-63
2023/07/15 05:39:25;;;;;;;3.25;1.40;;;;;;;;;;4969567;28;25064;-66
2023/07/15 05:41:51;;;;;;;3.60;1.10;;;;;;;;;;4965900;28;25065;-66
2023/07/15 05:44:17;;;;;;;2.58;1.20;;;;;;;;;;4967851;28;25049;-65
2023/07/15 05:46:43;;;;;;;3.97;1.50;;;;;;;;;;4955928;28;25171;-67
2023/07/15 05:49:09;;;;;;;3.60;1.20;;;;;;;;;;4963119;28;25060;-66
2023/07/15 05:51:35;;;;;;;1.90;1.13;;;;;;;;;;4978493;28;25068;-68
2023/07/15 05:54:01;;;;;;;3.65;1.33;;;;;;;;;;4984540;28;25076;-69
2023/07/15 05:56:27;;;;;;;3.92;1.27;;;;;;;;;;4990083;28;25066;-64
2023/07/15 05:58:53;;;;;;;3.58;1.20;;;;;;;;;;4992282;28;25079;-65
2023/07/15 06:01:19;;;;;;;3.25;1.13;;;;;;;;;;4969933;28;25109;-67
2023/07/15 06:03:44;;;;;;;1.88;1.10;;;;;;;;;;4972882;28;25056;-67
2023/07/15 06:06:10;;;;;;;1.90;1.48;;;;;;;;;;4979179;28;25055;-66
2023/07/15 06:08:36;;;;;;;2.58;1.13;;;;;;;;;;4964301;28;25146;-66
2023/07/15 06:11:03;;;;;;;5.50;1.17;;;;;;;;;;4964490;28;25084;-66
2023/07/15 06:13:29;;;;;;;2.38;1.48;;;;;;;;;;4963216;28;25083;-68
2023/07/15 06:15:55;;;;;;;5.25;0.98;;;;;;;;;;4957361;28;25138;-66
2023/07/15 06:18:21;;;;;;;1.88;0.63;;;;;;;;;;4958460;28;25057;-66
2023/07/15 06:20:47;;;;;;;2.65;0.88;;;;;;;;;;4967756;28;25114;-66
2023/07/15 06:23:14;;;;;;;1.45;1.17;;;;;;;;;;4966394;28;25097;-66
2023/07/15 06:25:40;;;;;;;1.77;0.70;;;;;;;;;;4967954;28;25073;-65
2023/07/15 06:28:06;;;;;;;2.10;1.35;;;;;;;;;;4960055;28;25122;-66
2023/07/15 06:30:32;;;;;;;1.35;0.90;;;;;;;;;;4957070;28;25155;-66
2023/07/15 06:32:58;;;;;;;1.83;1.00;;;;;;;;;;4963093;28;25081;-66
2023/07/15 06:35:24;;;;;;;2.03;0.80;;;;;;;;;;4963237;28;25078;-67
2023/07/15 06:37:51;;;;;;;1.13;0.98;;;;;;;;;;4965428;28;25054;-65
2023/07/15 06:40:17;;;;;;;0.70;0.70;;;;;;;;;;4980704;28;25090;-65
2023/07/15 06:42:44;;;;;;;0.82;0.82;;;;;;;;;;4993463;28;25062;-65
2023/07/15 06:45:10;;;;;;;1.67;0.80;;;;;;;;;;4986689;28;25065;-66
2023/07/15 06:47:36;;;;;;;2.40;0.90;;;;;;;;;;4995277;28;25064;-63
2023/07/15 06:50:02;;;;;;;2.72;0.80;;;;;;;;;;4986879;28;25063;-66
2023/07/15 06:52:28;;;;;;;2.45;1.05;;;;;;;;;;4987247;28;25066;-68
2023/07/15 06:54:54;;;;;;;2.45;0.68;;;;;;;;;;4973955;28;25086;-67
2023/07/15 06:57:21;;;;;;;0.80;0.68;;;;;;;;;;4964074;28;25067;-67
2023/07/15 06:59:47;;;;;;;4.70;0.93;;;;;;;;;;4967935;28;25074;-65
2023/07/15 07:02:13;;;;;;;1.10;0.70;;;;;;;;;;4969053;28;25103;-65
2023/07/15 07:04:39;;;;;;;1.55;1.00;;;;;;;;;;4961402;28;25088;-66
2023/07/15 07:07:05;;;;;;;1.95;1.08;;;;;;;;;;4966514;28;25121;-67
2023/07/15 07:09:31;;;;;;;1.98;1.10;;;;;;;;;;4967295;28;25077;-64
2023/07/15 07:11:57;;;;;;;6.43;1.13;;;;;;;;;;4965585;28;25086;-65
2023/07/15 07:14:23;;;;;;;3.63;1.10;;;;;;;;;;4966445;28;25057;-66
2023/07/15 07:16:49;;;;;;;1.83;0.90;;;;;;;;;;4970498;28;25051;-66
2023/07/15 07:19:15;;;;;;;1.13;0.85;;;;;;;;;;4971133;28;25094;-67
2023/07/15 07:21:42;;;;;;;3.78;1.08;;;;;;;;;;4966395;28;25138;-67
2023/07/15 07:24:09;;;;;;;1.02;0.90;;;;;;;;;;4966641;28;25054;-65
2023/07/15 07:26:35;;;;;;;1.40;0.80;;;;;;;;;;4966426;28;25131;-64
2023/07/15 07:29:01;;;;;;;1.50;1.05;;;;;;;;;;4975089;28;25171;-65
2023/07/15 07:31:27;;;;;;;1.90;0.80;;;;;;;;;;4977864;28;25061;-65
2023/07/15 07:33:53;;;;;;;1.67;0.70;;;;;;;;;;4984898;28;25002;-67
2023/07/15 07:36:19;;;;;;;2.30;0.70;;;;;;;;;;4982865;28;25156;-66
2023/07/15 07:38:45;;;;;;;2.67;0.80;;;;;;;;;;4966791;28;25136;-67
2023/07/15 07:41:12;;;;;;;2.08;1.20;;;;;;;;;;4968070;28;25065;-66
2023/07/15 07:43:39;;;;;;;3.28;0.70;;;;;;;;;;4966110;28;25064;-62
2023/07/15 07:46:06;;;;;;;0.98;0.70;;;;;;;;;;4966344;28;25118;-65
2023/07/15 07:48:32;;;;;;;1.25;0.90;;;;;;;;;;4968291;28;25106;-67
2023/07/15 07:50:59;;;;;;;1.02;0.60;;;;;;;;;;4969597;28;25077;-65
2023/07/15 07:53:25;;;;;;;3.13;1.15;;;;;;;;;;4965144;28;25053;-64
2023/07/15 07:55:51;;;;;;;3.58;0.90;;;;;;;;;;4967840;28;25083;-64
2023/07/15 07:58:18;;;;;;;3.80;1.40;;;;;;;;;;4976267;28;25057;-65
2023/07/15 08:00:44;;;;;;;2.75;1.13;;;;;;;;;;4961149;28;25054;-65
2023/07/15 08:03:10;;;;;;;1.83;1.23;;;;;;;;;;4965273;28;25100;-67
2023/07/15 08:05:43;;;;;;;4.28;1.00;;;;;;;;;;4959363;28;25068;-65
2023/07/15 08:08:10;;;;;;;3.50;1.13;;;;;;;;;;4967351;28;25069;-66
2023/07/15 08:10:36;;;;;;;6.07;1.08;;;;;;;;;;4987089;28;25142;-65
2023/07/15 08:13:03;;;;;;;2.92;0.85;;;;;;;;;;4994213;28;25159;-66
2023/07/15 08:15:29;;;;;;;2.33;1.13;;;;;;;;;;4987042;28;25085;-68
2023/07/15 08:17:55;;;;;;;2.35;0.88;;;;;;;;;;4989723;28;25097;-66
2023/07/15 08:20:21;;;;;;;6.30;1.60;;;;;;;;;;4991368;28;25151;-66
2023/07/15 08:22:47;;;;;;;3.35;1.00;;;;;;;;;;4986734;28;25068;-64
2023/07/15 08:25:13;;;;;;;1.95;1.05;;;;;;;;;;4990935;28;25059;-63
2023/07/15 08:27:39;;;;;;;2.33;1.02;;;;;;;;;;4988921;28;25071;-63
2023/07/15 08:30:05;;;;;;;1.63;1.10;;;;;;;;;;4978636;28;25075;-62
2023/07/15 08:32:31;;;;;;;2.25;1.40;;;;;;;;;;4992979;28;25124;-65
2023/07/15 08:34:58;;;;;;;2.70;1.00;;;;;;;;;;4986988;28;25065;-67
2023/07/15 08:37:24;;;;;;;7.40;1.35;;;;;;;;;;4984631;28;25055;-64
2023/07/15 08:39:50;;;;;;;2.40;1.20;;;;;;;;;;4984403;28;25077;-63
2023/07/15 08:42:19;;;;;;;1.55;1.33;;;;;;;;;;4973553;28;25063;-64
2023/07/15 08:44:45;;;;;;;5.85;1.70;;;;;;;;;;4967619;28;25074;-64
2023/07/15 08:47:11;;;;;;;0.95;0.95;;;;;;;;;;4978698;28;25077;-66
2023/07/15 08:49:39;;;;;;;2.75;1.23;;;;;;;;;;4966410;28;25081;-65
2023/07/15 08:52:05;;;;;;;3.35;1.10;;;;;;;;;;4976533;28;25084;-66
2023/07/15 08:54:33;;;;;;;1.50;1.00;;;;;;;;;;4978062;28;25130;-64
2023/07/15 08:57:00;;;;;;;3.80;1.23;;;;;;;;;;4969808;28;25126;-66
2023/07/15 08:59:26;;;;;;;3.15;1.25;;;;;;;;;;4985337;28;25055;-65
2023/07/15 09:01:52;;;;;;;2.88;1.25;;;;;;;;;;4964551;28;25062;-64
2023/07/15 09:04:18;;;;;;;3.40;1.70;;;;;;;;;;4977927;28;25058;-63
2023/07/15 09:06:44;;;;;;;4.35;1.20;;;;;;;;;;4983148;28;25071;-66
2023/07/15 09:09:12;;;;;;;3.75;1.10;;;;;;;;;;4978713;28;25097;-65
2023/07/15 09:11:42;;;;;;;1.55;1.10;;;;;;;;;;4974960;28;25087;-67
2023/07/15 09:14:17;;;;;;;8.68;1.20;;;;;;;;;;4964519;28;25148;-66
2023/07/15 09:16:43;;;;;;;2.20;1.20;;;;;;;;;;4965009;28;25060;-65
2023/07/15 09:19:11;;;;;;;2.30;1.13;;;;;;;;;;4963976;28;25081;-64
2023/07/15 09:21:37;;;;;;;3.97;1.20;;;;;;;;;;4965012;28;25050;-62
2023/07/15 09:24:03;;;;;;;5.28;1.50;;;;;;;;;;4953499;28;25067;-65
2023/07/15 09:26:29;;;;;;;2.78;1.20;;;;;;;;;;4963349;28;25106;-65
2023/07/15 09:28:55;;;;;;;1.35;1.00;;;;;;;;;;4963379;28;25096;-65
2023/07/15 09:31:25;;;;;;;3.78;1.33;;;;;;;;;;4965792;28;25099;-66
2023/07/15 09:33:51;;;;;;;3.03;1.10;;;;;;;;;;4962284;28;25045;-65
2023/07/15 09:36:29;;;;;;;1.73;1.45;;;;;;;;;;4962745;28;25052;-64
2023/07/15 09:38:55;;;;;;;2.70;1.25;;;;;;;;;;4977358;28;25075;-66
2023/07/15 09:41:21;;;;;;;2.45;1.40;;;;;;;;;;4965475;28;25136;-65
2023/07/15 09:43:51;;;;;;;2.05;1.20;;;;;;;;;;4963991;28;25074;-66
2023/07/15 09:46:19;;;;;;;3.40;1.50;;;;;;;;;;4977997;28;25069;-66
2023/07/15 09:48:46;;;;;;;4.88;1.30;;;;;;;;;;4996583;28;25055;-64
2023/07/15 09:51:13;;;;;;;2.78;1.00;;;;;;;;;;4995192;28;25071;-64
2023/07/15 09:53:45;;;;;;;1.75;1.08;;;;;;;;;;5001833;28;25053;-65
2023/07/15 09:56:11;;;;;;;2.03;1.38;;;;;;;;;;4967153;28;25135;-64
2023/07/15 09:58:38;;;;;;;1.70;1.13;;;;;;;;;;4969458;28;25072;-65
2023/07/15 10:01:06;;;;;;;1.48;1.10;;;;;;;;;;4976415;28;26166;-65
2023/07/15 10:03:42;;;;;;;2.28;1.17;;;;;;;;;;4978127;28;25059;-64
2023/07/15 10:06:09;;;;;;;2.80;1.20;;;;;;;;;;4974790;28;25069;-63
2023/07/15 10:08:35;;;;;;;4.13;1.40;;;;;;;;;;4974884;28;25067;-63
2023/07/15 10:11:01;;;;;;;4.63;1.20;;;;;;;;;;4988949;28;25149;-66
2023/07/15 10:13:28;;;;;;;3.03;1.20;;;;;;;;;;4986477;28;25074;-65
2023/07/15 10:15:54;;;;;;;2.28;1.27;;;;;;;;;;4988407;28;25056;-66
2023/07/15 10:18:22;;;;;;;2.05;1.00;;;;;;;;;;4990423;28;25079;-65
2023/07/15 10:20:55;;;;;;;1.88;1.10;;;;;;;;;;4989478;28;25077;-67
2023/07/15 10:23:25;;;;;;;3.03;1.30;;;;;;;;;;4984092;28;25050;-66
2023/07/15 10:26:08;;;;;;;4.55;0.95;;;;;;;;;;4982123;28;25160;-67
2023/07/15 10:28:34;;;;;;;1.25;1.13;;;;;;;;;;4985040;28;25107;-63
2023/07/15 10:31:06;;;;;;;4.20;1.70;;;;;;;;;;4967452;28;25164;-65
2023/07/15 10:33:32;;;;;;;4.47;1.20;;;;;;;;;;4987078;28;25083;-65
2023/07/15 10:35:58;;;;;;;1.63;1.17;;;;;;;;;;4986032;28;25113;-66
2023/07/15 10:38:28;;;;;;;3.28;1.65;;;;;;;;;;4984364;28;25058;-65
2023/07/15 10:40:59;;;;;;;2.67;1.20;;;;;;;;;;4986993;28;25078;-64
2023/07/15 10:43:34;;;;;;;8.43;1.42;;;;;;;;;;4992796;28;25064;-65
2023/07/15 10:46:05;;;;;;;3.72;1.10;;;;;;;;;;4987364;28;25069;-62
2023/07/15 10:48:31;;;;;;;2.35;1.27;;;;;;;;;;4983173;28;25081;-64
2023/07/15 10:50:59;;;;;;;2.40;1.63;;;;;;;;;;4974135;28;25086;-65
2023/07/15 10:53:32;;;;;;;2.40;1.40;;;;;;;;;;4979687;28;25076;-64
2023/07/15 10:56:11;;;;;;;2.47;1.27;;;;;;;;;;4989623;28;25076;-63
2023/07/15 10:58:37;;;;;;;4.35;1.30;;;;;;;;;;4990877;28;25050;-65
2023/07/15 11:01:11;;;;;;;3.08;1.42;;;;;;;;;;4992352;28;25090;-63
2023/07/15 11:03:43;;;;;;;2.55;1.60;;;;;;;;;;4988248;28;25074;-65
2023/07/15 11:06:10;;;;;;;2.60;1.38;;;;;;;;;;4993962;28;25164;-64
2023/07/15 11:08:37;;;;;;;6.25;1.50;;;;;;;;;;4994064;28;25082;-63
2023/07/15 11:11:04;;;;;;;3.63;1.25;;;;;;;;;;4981998;28;25057;-63
2023/07/15 11:13:30;;;;;;;3.58;1.40;;;;;;;;;;4994528;28;25048;-63
2023/07/15 11:15:57;;;;;;;3.75;1.45;;;;;;;;;;4990783;28;25114;-63
2023/07/15 11:18:24;;;;;;;3.22;1.52;;;;;;;;;;4991765;28;25062;-63
2023/07/15 11:20:51;;;;;;;6.40;1.63;;;;;;;;;;5002064;28;25131;-63
2023/07/15 11:23:18;;;;;;;3.55;1.52;;;;;;;;;;4993146;28;25141;-63
2023/07/15 11:25:43;;;;;;;4.28;1.50;;;;;;;;;;4973838;28;25099;-65
2023/07/15 11:28:10;;;;;;;2.95;1.23;;;;;;;;;;4967522;28;25078;-65
2023/07/15 11:30:37;;;;;;;5.85;1.70;;;;;;;;;;4965706;28;25156;-64
2023/07/15 11:33:04;;;;;;;2.45;1.30;;;;;;;;;;4968192;28;25059;-64
2023/07/15 11:35:31;;;;;;;3.35;1.65;;;;;;;;;;4990705;28;25085;-64
2023/07/15 11:37:57;;;;;;;1.55;1.33;;;;;;;;;;4976106;28;25071;-64
2023/07/15 11:40:23;;;;;;;8.32;1.60;;;;;;;;;;4972559;28;25064;-64
2023/07/15 11:42:49;;;;;;;2.30;1.25;;;;;;;;;;4981892;28;25065;-64
2023/07/15 11:45:15;;;;;;;5.05;1.67;;;;;;;;;;4992453;28;25158;-63
2023/07/15 11:47:44;;;;;;;2.22;1.83;;;;;;;;;;4984361;28;25160;-63
2023/07/15 11:50:13;;;;;;;1.85;1.33;;;;;;;;;;4983383;28;25150;-63
2023/07/15 11:52:42;;;;;;;4.03;1.80;;;;;;;;;;4974741;28;25092;-65
2023/07/15 11:55:09;;;;;;;3.88;1.73;;;;;;;;;;4970204;28;25129;-64
2023/07/15 11:57:45;;;;;;;3.75;1.83;;;;;;;;;;4979188;28;25099;-64
2023/07/15 12:00:34;;;;;;;3.47;1.85;;;;;;;;;;4996739;28;25076;-62
2023/07/15 12:03:07;;;;;;;4.30;1.70;;;;;;;;;;4996875;28;25057;-64
2023/07/15 12:05:38;;;;;;;1.67;1.45;;;;;;;;;;4993214;28;25057;-65
2023/07/15 12:08:10;;;;;;;3.50;1.67;;;;;;;;;;4987851;28;25134;-63
2023/07/15 12:10:48;;;;;;;2.60;1.30;;;;;;;;;;4982456;28;25056;-63
2023/07/15 12:13:14;;;;;;;2.42;1.50;;;;;;;;;;4987322;28;25073;-66
2023/07/15 12:15:40;;;;;;;3.00;1.90;;;;;;;;;;4968605;28;25109;-64
2023/07/15 12:18:06;;;;;;;3.17;1.35;;;;;;;;;;4971679;28;25157;-64
2023/07/15 12:20:32;;;;;;;2.47;1.50;;;;;;;;;;4975134;28;25150;-64
2023/07/15 12:22:57;;;;;;;2.08;1.20;;;;;;;;;;4982238;28;25151;-64
2023/07/15 12:25:24;;;;;;;2.67;1.27;;;;;;;;;;4971214;28;25043;-64
2023/07/15 12:27:50;;;;;;;3.20;1.63;;;;;;;;;;4965858;28;25109;-65
2023/07/15 12:30:16;;;;;;;4.22;1.30;;;;;;;;;;4967839;28;25142;-65
2023/07/15 12:32:42;;;;;;;3.90;1.80;;;;;;;;;;4987319;28;25133;-64
2023/07/15 12:35:08;;;;;;;3.83;1.30;;;;;;;;;;4976287;28;25146;-63
2023/07/15 12:37:35;;;;;;;6.93;2.00;;;;;;;;;;4966473;28;25131;-64
2023/07/15 12:40:03;;;;;;;2.28;1.40;;;;;;;;;;4967516;28;25060;-64
2023/07/15 12:42:29;;;;;;;4.90;1.65;;;;;;;;;;4972144;28;25096;-65
2023/07/15 12:44:55;;;;;;;2.80;1.52;;;;;;;;;;4993590;28;25088;-67
2023/07/15 12:47:21;;;;;;;4.53;1.60;;;;;;;;;;4984583;28;25056;-63
2023/07/15 12:49:47;;;;;;;2.67;1.60;;;;;;;;;;4985578;28;25070;-63
2023/07/15 12:52:13;;;;;;;3.40;2.78;;;;;;;;;;5002492;28;25073;-62
2023/07/15 12:54:38;;;;;;;1.40;1.27;;;;;;;;;;4994435;28;25061;-64
2023/07/15 12:57:04;;;;;;;2.30;1.50;;;;;;;;;;4967707;28;25085;-62
2023/07/15 12:59:30;;;;;;;2.45;1.58;;;;;;;;;;4972571;28;25079;-63
2023/07/15 13:01:56;;;;;;;4.35;1.30;;;;;;;;;;4963117;28;25078;-66
2023/07/15 13:04:22;;;;;;;3.83;1.75;;;;;;;;;;4973352;28;25049;-63
2023/07/15 13:06:48;;;;;;;6.25;1.88;;;;;;;;;;4966683;28;25103;-63
2023/07/15 13:09:14;;;;;;;2.33;1.55;;;;;;;;;;4974498;28;25122;-64
2023/07/15 13:11:40;;;;;;;3.08;1.65;;;;;;;;;;4984634;28;25116;-63
2023/07/15 13:14:06;;;;;;;2.17;1.65;;;;;;;;;;4973142;28;25178;-63
2023/07/15 13:16:32;;;;;;;4.18;1.77;;;;;;;;;;4968520;28;25083;-64
2023/07/15 13:18:58;;;;;;;4.47;1.35;;;;;;;;;;4965328;28;25062;-65
2023/07/15 13:21:24;;;;;;;2.45;1.30;;;;;;;;;;4977965;28;25043;-64
2023/07/15 13:23:50;;;;;;;5.95;1.58;;;;;;;;;;4993469;28;25104;-62
2023/07/15 13:26:16;;;;;;;2.05;1.20;;;;;;;;;;4982765;28;25162;-66
2023/07/15 13:28:42;;;;;;;2.53;1.30;;;;;;;;;;4979137;28;25130;-65
2023/07/15 13:31:08;;;;;;;3.10;1.50;;;;;;;;;;4981283;28;25126;-63
2023/07/15 13:33:34;;;;;;;4.32;1.58;;;;;;;;;;4970945;28;25086;-67
2023/07/15 13:36:00;;;;;;;3.00;2.08;;;;;;;;;;4975957;28;25064;-62
2023/07/15 13:38:26;;;;;;;3.80;1.55;;;;;;;;;;4980529;28;25162;-65
2023/07/15 13:40:52;;;;;;;2.42;1.23;;;;;;;;;;4972243;28;25135;-62
2023/07/15 13:43:18;;;;;;;4.90;1.40;;;;;;;;;;4979848;28;25073;-65
2023/07/15 13:45:44;;;;;;;2.33;1.25;;;;;;;;;;4969200;28;25104;-65
2023/07/15 13:48:10;;;;;;;2.28;1.15;;;;;;;;;;4982345;28;25069;-65
2023/07/15 13:50:35;;;;;;;5.78;1.60;;;;;;;;;;4978424;28;25072;-63
2023/07/15 13:53:02;;;;;;;2.38;1.40;;;;;;;;;;4989381;28;25066;-64
2023/07/15 13:55:27;;;;;;;1.95;1.45;;;;;;;;;;4991034;28;25072;-64
2023/07/15 13:57:53;;;;;;;4.10;1.58;;;;;;;;;;4992738;28;25068;-64
2023/07/15 14:00:19;;;;;;;1.77;1.35;;;;;;;;;;4999976;28;25086;-64
2023/07/15 14:02:45;;;;;;;6.50;1.85;;;;;;;;;;4996001;28;25159;-65
2023/07/15 14:05:11;;;;;;;1.60;1.38;;;;;;;;;;4969415;28;25056;-66
2023/07/15 14:07:37;;;;;;;4.93;1.73;;;;;;;;;;4971711;28;25045;-63
2023/07/15 14:10:04;;;;;;;4.18;1.55;;;;;;;;;;4975861;28;25075;-65
2023/07/15 14:12:30;;;;;;;4.70;1.48;;;;;;;;;;4981838;28;25090;-63
2023/07/15 14:14:56;;;;;;;3.90;1.40;;;;;;;;;;4971431;28;25053;-63
2023/07/15 14:17:21;;;;;;;4.85;1.48;;;;;;;;;;4969285;28;25064;-63
2023/07/15 14:19:47;;;;;;;3.03;1.50;;;;;;;;;;4990777;28;25058;-63
2023/07/15 14:22:13;;;;;;;2.38;1.45;;;;;;;;;;4985464;28;25067;-65
2023/07/15 14:24:39;;;;;;;3.38;1.45;;;;;;;;;;4987596;28;25065;-64
2023/07/15 14:27:05;;;;;;;3.38;1.38;;;;;;;;;;4987182;28;25060;-64
2023/07/15 14:29:32;;;;;;;4.72;1.20;;;;;;;;;;4988855;28;25114;-64
2023/07/15 14:31:57;;;;;;;2.28;1.58;;;;;;;;;;4986982;28;25125;-65
2023/07/15 14:34:23;;;;;;;5.90;1.60;;;;;;;;;;4986215;28;25086;-62
2023/07/15 14:36:49;;;;;;;5.10;1.50;;;;;;;;;;4987120;28;25073;-65
2023/07/15 14:39:15;;;;;;;3.63;1.48;;;;;;;;;;4986356;28;25160;-63
2023/07/15 14:41:43;;;;;;;2.40;1.42;;;;;;;;;;4972950;28;25053;-65